createdAt,value
2018-02-20T00:01:22.870Z,48.87
2018-02-20T00:03:50.307Z,44.07
2018-02-20T00:06:17.753Z,41.93
2018-02-20T00:08:45.172Z,44.13
2018-02-20T00:11:12.624Z,43.53
2018-02-20T00:13:40.036Z,44.00
2018-02-20T00:16:08.235Z,44.53
2018-02-20T00:18:35.667Z,45.03
2018-02-20T00:21:03.113Z,45.67
2018-02-20T00:23:30.541Z,46.33
2018-02-20T00:25:57.980Z,48.00
2018-02-20T00:28:25.404Z,46.87
2018-02-20T00:30:53.633Z,49.53
2018-02-20T00:33:21.061Z,47.00
2018-02-20T00:35:48.492Z,51.57
2018-02-20T00:38:15.918Z,42.20
2018-02-20T00:40:43.359Z,43.47
2018-02-20T00:43:10.768Z,45.87
2018-02-20T00:45:38.982Z,44.67
2018-02-20T00:48:06.399Z,45.83
2018-02-20T00:50:33.827Z,44.63
2018-02-20T00:53:01.260Z,46.93
2018-02-20T00:55:28.687Z,48.20
2018-02-20T00:57:56.897Z,49.90
2018-02-20T01:00:24.340Z,49.13
2018-02-20T01:02:51.771Z,46.47
2018-02-20T01:05:19.195Z,50.57
2018-02-20T01:07:46.667Z,53.27
2018-02-20T01:10:14.095Z,58.27
2018-02-20T01:12:41.547Z,53.80
2018-02-20T01:15:08.968Z,49.77
2018-02-20T01:17:36.428Z,57.50
2018-02-20T01:20:03.865Z,51.50
2018-02-20T01:22:31.298Z,49.83
2018-02-20T01:24:58.724Z,50.00
2018-02-20T01:27:26.157Z,53.27
2018-02-20T01:29:54.364Z,45.80
2018-02-20T01:32:21.796Z,43.63
2018-02-20T01:34:49.220Z,53.70
2018-02-20T01:37:16.666Z,45.77
2018-02-20T01:39:44.092Z,50.87
2018-02-20T01:42:11.579Z,49.73
2018-02-20T01:44:39.008Z,49.33
2018-02-20T01:47:06.445Z,48.60
2018-02-20T01:49:33.875Z,46.73
2018-02-20T01:52:01.300Z,49.27
2018-02-20T01:54:28.740Z,45.90
2018-02-20T01:56:56.168Z,51.20
2018-02-20T01:59:24.359Z,54.07
2018-02-20T02:01:51.809Z,51.70
2018-02-20T02:04:19.236Z,48.47
2018-02-20T02:06:46.671Z,55.63
2018-02-20T02:09:14.107Z,55.03
2018-02-20T02:11:42.288Z,49.27
2018-02-20T02:14:09.725Z,51.73
2018-02-20T02:16:37.152Z,51.33
2018-02-20T02:19:04.591Z,53.07
2018-02-20T02:21:32.020Z,51.67
2018-02-20T02:24:00.228Z,52.90
2018-02-20T02:26:27.672Z,50.20
2018-02-20T02:28:55.096Z,54.17
2018-02-20T02:31:22.528Z,53.70
2018-02-20T02:33:49.973Z,56.00
2018-02-20T02:36:17.436Z,54.97
2018-02-20T02:38:44.856Z,53.17
2018-02-20T02:41:12.293Z,49.97
2018-02-20T02:43:39.724Z,51.57
2018-02-20T02:46:07.917Z,56.47
2018-02-20T02:48:35.353Z,56.00
2018-02-20T02:51:02.788Z,56.63
2018-02-20T02:53:30.216Z,50.47
2018-02-20T02:55:57.648Z,55.30
2018-02-20T02:58:25.089Z,61.43
2018-02-20T03:00:52.516Z,55.07
2018-02-20T03:03:20.720Z,55.23
2018-02-20T03:05:48.160Z,50.43
2018-02-20T03:08:15.588Z,49.70
2018-02-20T03:10:43.020Z,49.73
2018-02-20T03:13:10.459Z,49.90
2018-02-20T03:15:37.916Z,50.90
2018-02-20T03:18:05.359Z,48.47
2018-02-20T03:20:32.784Z,49.47
2018-02-20T03:23:00.225Z,47.60
2018-02-20T03:25:27.664Z,50.40
2018-02-20T03:27:55.111Z,46.23
2018-02-20T03:30:22.547Z,49.53
2018-02-20T03:32:49.980Z,50.13
2018-02-20T03:35:18.164Z,48.87
2018-02-20T03:37:45.604Z,51.60
2018-02-20T03:40:13.033Z,49.27
2018-02-20T03:42:40.464Z,48.63
2018-02-20T03:45:07.904Z,48.10
2018-02-20T03:47:36.095Z,50.90
2018-02-20T03:50:03.527Z,52.87
2018-02-20T03:52:30.964Z,48.63
2018-02-20T03:54:58.427Z,48.00
2018-02-20T03:57:25.843Z,47.63
2018-02-20T03:59:53.276Z,46.70
2018-02-20T04:02:20.696Z,49.30
2018-02-20T04:04:48.896Z,47.73
2018-02-20T04:07:16.356Z,49.97
2018-02-20T04:09:43.832Z,45.77
2018-02-20T04:12:11.270Z,51.30
2018-02-20T04:14:38.700Z,52.53
2018-02-20T04:17:06.135Z,50.60
2018-02-20T04:19:33.564Z,46.17
2018-02-20T04:22:01.024Z,52.33
2018-02-20T04:24:28.474Z,52.20
2018-02-20T04:26:55.916Z,45.03
2018-02-20T04:29:23.345Z,48.93
2018-02-20T04:31:50.773Z,47.70
2018-02-20T04:34:18.218Z,48.60
2018-02-20T04:36:45.649Z,44.27
2018-02-20T04:39:13.084Z,41.00
2018-02-20T04:41:40.650Z,44.90
2018-02-20T04:44:08.087Z,40.90
2018-02-20T04:46:35.521Z,47.37
2018-02-20T04:49:02.952Z,44.10
2018-02-20T04:51:30.384Z,40.80
2018-02-20T04:53:57.807Z,42.20
2018-02-20T04:56:25.236Z,44.40
2018-02-20T04:58:53.433Z,48.33
2018-02-20T05:01:20.852Z,41.90
2018-02-20T05:03:48.293Z,43.03
2018-02-20T05:06:15.722Z,40.97
2018-02-20T05:08:43.920Z,41.43
2018-02-20T05:11:11.352Z,43.20
2018-02-20T05:13:38.799Z,42.30
2018-02-20T05:16:06.235Z,41.13
2018-02-20T05:18:33.665Z,43.00
2018-02-20T05:21:01.100Z,41.87
2018-02-20T05:23:28.543Z,42.37
2018-02-20T05:25:55.987Z,39.13
2018-02-20T05:28:23.424Z,39.17
2018-02-20T05:30:50.851Z,42.80
2018-02-20T05:33:19.048Z,40.77
2018-02-20T05:35:46.472Z,41.17
2018-02-20T05:38:13.895Z,45.33
2018-02-20T05:40:42.097Z,41.20
2018-02-20T05:43:09.528Z,44.60
2018-02-20T05:45:36.956Z,38.53
2018-02-20T05:48:05.955Z,41.37
2018-02-20T05:50:33.380Z,39.20
2018-02-20T05:53:00.812Z,40.73
2018-02-20T05:55:28.239Z,39.97
2018-02-20T05:57:56.457Z,41.33
2018-02-20T06:00:23.892Z,40.63
2018-02-20T06:02:51.315Z,40.37
2018-02-20T06:05:18.755Z,38.70
2018-02-20T06:07:46.196Z,36.83
2018-02-20T06:10:13.616Z,38.10
2018-02-20T06:12:41.055Z,35.47
2018-02-20T06:15:09.252Z,39.10
2018-02-20T06:17:36.697Z,40.03
2018-02-20T06:20:04.131Z,36.83
2018-02-20T06:22:31.552Z,36.60
2018-02-20T06:24:58.977Z,35.43
2018-02-20T06:27:27.163Z,36.00
2018-02-20T06:29:54.600Z,33.77
2018-02-20T06:32:22.020Z,38.73
2018-02-20T06:34:50.217Z,36.20
2018-02-20T06:37:17.648Z,36.93
2018-02-20T06:39:45.079Z,36.60
2018-02-20T06:42:12.510Z,39.03
2018-02-20T06:44:40.739Z,38.03
2018-02-20T06:47:08.157Z,37.77
2018-02-20T06:49:35.576Z,32.97
2018-02-20T06:52:03.003Z,38.10
2018-02-20T06:54:30.431Z,38.27
2018-02-20T06:56:57.873Z,36.30
2018-02-20T06:59:26.081Z,33.43
2018-02-20T07:01:53.503Z,34.17
2018-02-20T07:04:20.932Z,35.40
2018-02-20T07:06:48.359Z,34.77
2018-02-20T07:09:15.795Z,34.33
2018-02-20T07:11:43.976Z,35.90
2018-02-20T07:14:11.402Z,33.57
2018-02-20T07:16:38.832Z,32.77
2018-02-20T07:19:07.033Z,32.77
2018-02-20T07:21:34.488Z,38.60
2018-02-20T07:24:01.917Z,34.93
2018-02-20T07:26:29.340Z,33.53
2018-02-20T07:28:56.771Z,35.37
2018-02-20T07:31:24.968Z,37.00
2018-02-20T07:33:52.387Z,35.70
2018-02-20T07:36:19.836Z,40.87
2018-02-20T07:38:47.253Z,41.13
2018-02-20T07:41:14.690Z,41.03
2018-02-20T07:43:42.880Z,41.47
2018-02-20T07:46:10.312Z,40.77
2018-02-20T07:48:37.747Z,35.83
2018-02-20T07:51:05.160Z,41.43
2018-02-20T07:53:33.362Z,40.27
2018-02-20T07:56:00.796Z,42.77
2018-02-20T07:58:28.216Z,42.47
2018-02-20T08:00:55.648Z,40.87
2018-02-20T08:03:23.851Z,41.33
2018-02-20T08:05:51.260Z,42.50
2018-02-20T08:08:18.688Z,38.93
2018-02-20T08:10:46.888Z,38.90
2018-02-20T08:13:14.314Z,44.20
2018-02-20T08:15:41.738Z,41.93
2018-02-20T08:18:09.927Z,44.77
2018-02-20T08:20:37.356Z,41.00
2018-02-20T08:23:04.792Z,44.80
2018-02-20T08:25:32.216Z,41.93
2018-02-20T08:28:00.408Z,41.47
2018-02-20T08:30:27.845Z,40.10
2018-02-20T08:32:55.269Z,38.30
2018-02-20T08:35:22.688Z,43.40
2018-02-20T08:37:50.885Z,40.93
2018-02-20T08:40:18.304Z,41.73
2018-02-20T08:42:45.731Z,40.83
2018-02-20T08:45:13.944Z,42.37
2018-02-20T08:47:41.372Z,47.27
2018-02-20T08:50:08.792Z,45.30
2018-02-20T08:52:36.214Z,53.33
2018-02-20T08:55:04.400Z,46.67
2018-02-20T08:57:31.829Z,48.80
2018-02-20T08:59:59.252Z,45.90
2018-02-20T09:02:27.445Z,43.00
2018-02-20T09:04:54.884Z,42.00
2018-02-20T09:07:22.304Z,45.73
2018-02-20T09:09:50.496Z,45.50
2018-02-20T09:12:17.925Z,45.77
2018-02-20T09:14:45.349Z,42.60
2018-02-20T09:17:13.552Z,40.90
2018-02-20T09:19:40.972Z,41.70
2018-02-20T09:22:08.412Z,41.43
2018-02-20T09:24:35.833Z,43.43
2018-02-20T09:27:04.033Z,40.50
2018-02-20T09:29:31.460Z,44.77
2018-02-20T09:31:58.886Z,40.77
2018-02-20T09:34:26.312Z,36.80
2018-02-20T09:36:54.508Z,37.90
2018-02-20T09:39:21.927Z,37.73
2018-02-20T09:41:49.352Z,36.43
2018-02-20T09:44:17.544Z,32.83
2018-02-20T09:46:44.969Z,37.07
2018-02-20T09:49:12.397Z,36.93
2018-02-20T09:51:40.580Z,33.90
2018-02-20T09:54:08.000Z,34.57
2018-02-20T09:56:36.197Z,32.37
2018-02-20T09:59:03.621Z,34.10
2018-02-20T10:01:31.040Z,32.80
2018-02-20T10:03:59.228Z,33.63
2018-02-20T10:06:26.652Z,38.80
2018-02-20T10:08:54.076Z,34.20
2018-02-20T10:11:22.274Z,33.13
2018-02-20T10:13:49.704Z,31.00
2018-02-20T10:16:17.131Z,32.77
2018-02-20T10:18:44.556Z,34.53
2018-02-20T10:21:11.995Z,36.30
2018-02-20T10:23:39.424Z,31.50
2018-02-20T10:26:06.859Z,33.03
2018-02-20T10:28:34.276Z,36.87
2018-02-20T10:31:01.701Z,37.23
2018-02-20T10:33:29.164Z,29.87
2018-02-20T10:35:56.590Z,29.63
2018-02-20T10:38:24.004Z,31.07
2018-02-20T10:40:51.432Z,31.83
2018-02-20T10:43:19.648Z,33.03
2018-02-20T10:45:47.073Z,32.20
2018-02-20T10:48:14.500Z,31.37
2018-02-20T10:50:41.929Z,31.00
2018-02-20T10:53:10.122Z,33.40
2018-02-20T10:55:37.551Z,29.50
2018-02-20T10:58:04.966Z,33.00
2018-02-20T11:00:33.157Z,35.53
2018-02-20T11:03:00.584Z,31.10
2018-02-20T11:05:28.004Z,33.47
2018-02-20T11:07:56.193Z,27.47
2018-02-20T11:10:23.624Z,32.10
2018-02-20T11:12:51.048Z,34.47
2018-02-20T11:15:18.476Z,29.47
2018-02-20T11:17:46.680Z,33.57
2018-02-20T11:20:14.088Z,35.40
2018-02-20T11:22:41.576Z,30.53
2018-02-20T11:25:08.997Z,33.20
2018-02-20T11:27:36.431Z,32.30
2018-02-20T11:30:03.867Z,28.17
2018-02-20T11:32:31.292Z,31.50
2018-02-20T11:34:59.481Z,27.33
2018-02-20T11:37:26.916Z,27.60
2018-02-20T11:39:54.340Z,29.40
2018-02-20T11:42:21.780Z,30.87
2018-02-20T11:44:49.216Z,29.13
2018-02-20T11:47:17.408Z,33.40
2018-02-20T11:49:44.873Z,32.33
2018-02-20T11:52:12.312Z,38.53
2018-02-20T11:54:39.860Z,34.90
2018-02-20T11:57:07.264Z,37.50
2018-02-20T11:59:34.699Z,32.07
2018-02-20T12:02:02.116Z,32.27
2018-02-20T12:04:30.316Z,39.07
2018-02-20T12:06:57.746Z,33.93
2018-02-20T12:09:25.176Z,32.37
2018-02-20T12:11:53.356Z,37.73
2018-02-20T12:14:20.804Z,40.57
2018-02-20T12:16:48.224Z,39.70
2018-02-20T12:19:15.697Z,40.23
2018-02-20T12:21:43.096Z,40.00
2018-02-20T12:24:11.296Z,45.97
2018-02-20T12:26:38.727Z,41.77
2018-02-20T12:29:06.160Z,40.53
2018-02-20T12:31:33.585Z,41.87
2018-02-20T12:34:01.032Z,44.47
2018-02-20T12:36:28.464Z,48.10
2018-02-20T12:38:56.664Z,42.03
2018-02-20T12:41:24.088Z,41.37
2018-02-20T12:43:51.516Z,45.77
2018-02-20T12:46:18.950Z,48.17
2018-02-20T12:48:47.140Z,46.57
2018-02-20T12:51:14.565Z,40.23
2018-02-20T12:53:42.772Z,43.70
2018-02-20T12:56:10.180Z,50.23
2018-02-20T12:58:37.612Z,44.23
2018-02-20T13:01:05.037Z,41.70
2018-02-20T13:03:32.529Z,44.80
2018-02-20T13:05:59.968Z,45.40
2018-02-20T13:08:27.407Z,40.70
2018-02-20T13:10:54.827Z,40.27
2018-02-20T13:13:22.256Z,39.10
2018-02-20T13:15:49.682Z,39.80
2018-02-20T13:18:17.868Z,40.03
2018-02-20T13:20:45.340Z,38.30
2018-02-20T13:23:12.774Z,42.07
2018-02-20T13:25:40.188Z,40.43
2018-02-20T13:28:07.607Z,42.63
2018-02-20T13:30:35.044Z,40.13
2018-02-20T13:33:03.232Z,40.90
2018-02-20T13:35:30.663Z,38.67
2018-02-20T13:37:58.095Z,42.37
2018-02-20T13:40:25.519Z,41.10
2018-02-20T13:42:53.708Z,38.97
2018-02-20T13:45:21.141Z,37.50
2018-02-20T13:47:48.715Z,37.77
2018-02-20T13:50:16.155Z,39.83
2018-02-20T13:52:43.583Z,39.67
2018-02-20T13:55:11.016Z,43.53
2018-02-20T13:57:38.436Z,43.87
2018-02-20T14:00:06.629Z,40.57
2018-02-20T14:02:34.061Z,43.00
2018-02-20T14:05:01.492Z,40.73
2018-02-20T14:07:28.928Z,36.90
2018-02-20T14:09:57.120Z,39.13
2018-02-20T14:12:24.523Z,37.73
2018-02-20T14:14:52.728Z,34.40
2018-02-20T14:17:20.148Z,34.60
2018-02-20T14:19:47.581Z,34.83
2018-02-20T14:22:15.010Z,35.63
2018-02-20T14:24:42.431Z,32.27
2018-02-20T14:27:10.624Z,34.90
2018-02-20T14:29:38.060Z,38.97
2018-02-20T14:32:05.472Z,36.90
2018-02-20T14:34:33.664Z,36.47
2018-02-20T14:37:01.093Z,37.07
2018-02-20T14:39:29.279Z,31.73
2018-02-20T14:41:56.821Z,22.13
2018-02-20T14:44:24.252Z,22.60
2018-02-20T14:46:51.731Z,22.30
2018-02-20T14:49:19.157Z,25.90
2018-02-20T14:51:46.601Z,24.83
2018-02-20T14:54:14.036Z,27.10
2018-02-20T14:56:41.464Z,28.30
2018-02-20T14:59:08.900Z,30.60
2018-02-20T15:01:36.328Z,29.90
2018-02-20T15:04:03.748Z,30.53
2018-02-20T15:06:31.172Z,32.23
2018-02-20T15:08:58.592Z,29.67
2018-02-20T15:11:26.032Z,28.17
2018-02-20T15:13:53.460Z,30.53
2018-02-20T15:16:20.891Z,27.70
2018-02-20T15:18:48.316Z,33.63
2018-02-20T15:21:15.740Z,32.07
2018-02-20T15:23:43.927Z,31.40
2018-02-20T15:26:11.351Z,32.77
2018-02-20T15:28:39.548Z,31.27
2018-02-20T15:31:06.976Z,31.27
2018-02-20T15:33:34.395Z,33.03
2018-02-20T15:36:02.608Z,31.47
2018-02-20T15:38:30.038Z,33.73
2018-02-20T15:40:57.464Z,33.10
2018-02-20T15:43:24.896Z,31.17
2018-02-20T15:45:52.323Z,32.10
2018-02-20T15:48:19.752Z,33.87
2018-02-20T15:50:47.960Z,31.80
2018-02-20T15:53:15.371Z,35.30
2018-02-20T15:55:42.796Z,32.33
2018-02-20T15:58:10.996Z,30.97
2018-02-20T16:00:38.415Z,32.63
2018-02-20T16:03:05.840Z,32.07
2018-02-20T16:05:34.044Z,29.37
2018-02-20T16:08:01.469Z,32.47
2018-02-20T16:10:28.900Z,36.67
2018-02-20T16:12:56.324Z,30.93
2018-02-20T16:15:24.520Z,31.33
2018-02-20T16:17:51.939Z,35.83
2018-02-20T16:20:19.381Z,32.37
2018-02-20T16:22:46.804Z,36.43
2018-02-20T16:25:14.992Z,36.37
2018-02-20T16:27:42.424Z,33.40
2018-02-20T16:30:09.861Z,33.27
2018-02-20T16:32:37.280Z,37.60
2018-02-20T16:35:05.468Z,38.13
2018-02-20T16:37:32.890Z,32.87
2018-02-20T16:40:01.080Z,33.70
2018-02-20T16:42:28.508Z,32.33
2018-02-20T16:44:55.988Z,32.93
2018-02-20T16:47:23.450Z,31.57
2018-02-20T16:49:50.844Z,35.83
2018-02-20T16:52:18.268Z,35.63
2018-02-20T16:54:45.704Z,36.17
2018-02-20T16:57:13.919Z,35.60
2018-02-20T16:59:41.376Z,36.00
2018-02-20T17:02:08.772Z,36.63
2018-02-20T17:04:36.204Z,38.07
2018-02-20T17:07:03.692Z,34.43
2018-02-20T17:09:31.117Z,35.03
2018-02-20T17:11:58.549Z,39.07
2018-02-20T17:14:25.976Z,38.80
2018-02-20T17:16:53.415Z,42.03
2018-02-20T17:19:20.833Z,37.77
2018-02-20T17:21:48.260Z,43.37
2018-02-20T17:24:16.456Z,37.97
2018-02-20T17:26:43.885Z,41.93
2018-02-20T17:29:11.304Z,38.30
2018-02-20T17:31:38.736Z,39.43
2018-02-20T17:34:06.165Z,36.77
2018-02-20T17:36:33.596Z,39.03
2018-02-20T17:39:01.034Z,39.87
2018-02-20T17:41:28.468Z,39.27
2018-02-20T17:43:55.909Z,40.37
2018-02-20T17:46:23.336Z,38.03
2018-02-20T17:48:50.764Z,38.60
2018-02-20T17:51:18.196Z,35.50
2018-02-20T17:53:45.630Z,37.53
2018-02-20T17:56:13.823Z,35.70
2018-02-20T17:58:41.260Z,33.10
2018-02-20T18:01:08.688Z,37.57
2018-02-20T18:03:36.121Z,36.87
2018-02-20T18:06:03.564Z,37.00
2018-02-20T18:08:30.983Z,37.20
2018-02-20T18:10:59.185Z,38.10
2018-02-20T18:13:26.648Z,36.67
2018-02-20T18:15:54.084Z,38.07
2018-02-20T18:18:21.505Z,39.07
2018-02-20T18:20:48.932Z,40.03
2018-02-20T18:23:16.365Z,33.17
2018-02-20T18:25:44.568Z,36.47
2018-02-20T18:28:12.036Z,40.47
2018-02-20T18:30:39.456Z,44.70
2018-02-20T18:33:06.901Z,40.30
2018-02-20T18:35:34.329Z,38.53
2018-02-20T18:38:01.780Z,36.90
2018-02-20T18:40:29.216Z,42.23
2018-02-20T18:42:56.648Z,41.17
2018-02-20T18:45:24.092Z,41.53
2018-02-20T18:47:51.528Z,41.47
2018-02-20T18:50:18.977Z,40.70
2018-02-20T18:52:46.412Z,39.67
2018-02-20T18:55:13.840Z,44.63
2018-02-20T18:57:41.278Z,40.00
2018-02-20T19:00:08.712Z,42.73
2018-02-20T19:02:36.160Z,42.83
2018-02-20T19:05:03.585Z,46.93
2018-02-20T19:07:31.772Z,49.87
2018-02-20T19:09:59.208Z,45.60
2018-02-20T19:12:26.656Z,47.10
2018-02-20T19:14:54.092Z,45.37
2018-02-20T19:17:21.532Z,46.20
2018-02-20T19:19:48.955Z,47.77
2018-02-20T19:22:17.154Z,43.57
2018-02-20T19:24:44.573Z,43.37
2018-02-20T19:27:12.012Z,46.93
2018-02-20T19:29:39.432Z,46.33
2018-02-20T19:32:07.624Z,49.83
2018-02-20T19:34:35.087Z,50.77
2018-02-20T19:37:02.484Z,51.30
2018-02-20T19:39:30.667Z,47.67
2018-02-20T19:41:58.104Z,48.97
2018-02-20T19:44:25.553Z,47.50
2018-02-20T19:46:53.888Z,48.60
2018-02-20T19:49:21.348Z,50.00
2018-02-20T19:51:48.781Z,48.10
2018-02-20T19:54:16.220Z,57.20
2018-02-20T19:56:43.653Z,48.57
2018-02-20T19:59:11.849Z,50.90
2018-02-20T20:01:39.293Z,51.57
2018-02-20T20:04:06.745Z,47.83
2018-02-20T20:06:34.152Z,53.93
2018-02-20T20:09:01.601Z,45.73
2018-02-20T20:11:29.024Z,53.07
2018-02-20T20:13:56.454Z,52.03
2018-02-20T20:16:24.648Z,48.80
2018-02-20T20:18:52.080Z,53.30
2018-02-20T20:21:19.512Z,52.87
2018-02-20T20:23:46.950Z,49.43
2018-02-20T20:26:14.385Z,49.57
2018-02-20T20:28:42.592Z,48.67
2018-02-20T20:31:10.025Z,47.87
2018-02-20T20:33:37.457Z,50.67
2018-02-20T20:36:04.884Z,48.70
2018-02-20T20:38:32.316Z,47.40
2018-02-20T20:40:59.767Z,47.80
2018-02-20T20:43:27.192Z,49.07
2018-02-20T20:45:55.383Z,46.80
2018-02-20T20:48:22.834Z,52.67
2018-02-20T20:50:50.268Z,50.90
2018-02-20T20:53:17.700Z,48.30
2018-02-20T20:55:45.124Z,55.20
2018-02-20T20:58:12.571Z,50.57
2018-02-20T21:00:40.033Z,53.50
2018-02-20T21:03:07.484Z,50.73
2018-02-20T21:05:34.900Z,52.53
2018-02-20T21:08:02.336Z,49.80
2018-02-20T21:10:29.776Z,54.03
2018-02-20T21:12:57.208Z,49.13
2018-02-20T21:15:25.395Z,51.73
2018-02-20T21:17:52.837Z,48.93
2018-02-20T21:20:20.268Z,58.00
2018-02-20T21:22:47.729Z,53.87
2018-02-20T21:25:15.168Z,55.70
2018-02-20T21:27:42.600Z,55.30
2018-02-20T21:30:10.044Z,50.80
2018-02-20T21:32:37.471Z,51.53
2018-02-20T21:35:04.929Z,57.77
2018-02-20T21:37:32.340Z,52.57
2018-02-20T21:40:00.554Z,52.23
2018-02-20T21:42:28.010Z,53.67
2018-02-20T21:44:55.467Z,52.70
2018-02-20T21:47:22.917Z,54.00
2018-02-20T21:49:51.109Z,50.57
2018-02-20T21:52:18.536Z,48.73
2018-02-20T21:54:45.974Z,49.20
2018-02-20T21:57:13.396Z,49.20
2018-02-20T21:59:41.596Z,50.47
2018-02-20T22:02:09.081Z,53.33
2018-02-20T22:04:38.030Z,53.53
2018-02-20T22:07:05.477Z,50.73
2018-02-20T22:09:32.909Z,51.57
2018-02-20T22:12:00.327Z,51.87
2018-02-20T22:14:27.809Z,45.50
2018-02-20T22:16:55.240Z,49.90
2018-02-20T22:19:22.695Z,53.87
2018-02-20T22:21:50.128Z,53.43
2018-02-20T22:24:17.588Z,48.93
2018-02-20T22:26:45.009Z,48.27
2018-02-20T22:29:12.449Z,50.20
2018-02-20T22:31:39.896Z,48.03
2018-02-20T22:34:07.335Z,48.50
2018-02-20T22:36:34.769Z,50.10
2018-02-20T22:39:02.204Z,54.90
2018-02-20T22:41:29.632Z,46.37
2018-02-20T22:43:57.084Z,53.23
2018-02-20T22:46:24.509Z,55.57
2018-02-20T22:48:51.956Z,50.47
2018-02-20T22:51:19.400Z,50.73
2018-02-20T22:53:46.851Z,49.87
2018-02-20T22:56:14.291Z,51.50
2018-02-20T22:58:41.760Z,45.33
2018-02-20T23:01:09.192Z,53.03
2018-02-20T23:03:36.628Z,47.03
2018-02-20T23:06:04.105Z,49.83
2018-02-20T23:08:31.528Z,45.53
2018-02-20T23:10:58.960Z,50.10
2018-02-20T23:13:26.389Z,48.63
2018-02-20T23:15:53.848Z,55.10
2018-02-20T23:18:21.268Z,46.07
2018-02-20T23:20:48.708Z,49.90
2018-02-20T23:23:16.132Z,46.20
2018-02-20T23:25:43.575Z,47.63
2018-02-20T23:28:11.004Z,49.30
2018-02-20T23:30:39.217Z,49.03
2018-02-20T23:33:06.637Z,48.00
2018-02-20T23:35:34.092Z,51.90
2018-02-20T23:38:01.560Z,48.03
2018-02-20T23:40:29.227Z,54.87
2018-02-20T23:42:57.436Z,50.03
2018-02-20T23:45:24.851Z,55.43
2018-02-20T23:47:52.283Z,54.37
2018-02-20T23:50:19.720Z,49.80
2018-02-20T23:52:47.924Z,49.00
2018-02-20T23:55:15.357Z,49.10
2018-02-20T23:57:42.788Z,54.43
